sensor_id;sensor_type;location;lat;lon;timestamp;pressure;altitude;pressure_sealevel;temperature;humidity
31121;BME280;17770;45.966;13.632;2023-06-22T00:00:48;100838.69;;;32.07;40.96
31121;BME280;17770;45.966;13.632;2023-06-22T00:03:14;100842.53;;;32.04;40.95
31121;BME280;17770;45.966;13.632;2023-06-22T00:05:40;100841.69;;;32.04;40.89
31121;BME280;17770;45.966;13.632;2023-06-22T00:08:06;100836.72;;;32.01;40.90
31121;BME280;17770;45.966;13.632;2023-06-22T00:10:32;100850.22;;;31.99;41.07
31121;BME280;17770;45.966;13.632;2023-06-22T00:12:58;100842.22;;;31.99;40.64
31121;BME280;17770;45.966;13.632;2023-06-22T00:15:24;100842.22;;;31.99;40.70
31121;BME280;17770;45.966;13.632;2023-06-22T00:17:50;100844.41;;;31.96;41.00
31121;BME280;17770;45.966;13.632;2023-06-22T00:20:16;100839.22;;;31.94;41.05
31121;BME280;17770;45.966;13.632;2023-06-22T00:22:44;100836.75;;;31.93;41.23
31121;BME280;17770;45.966;13.632;2023-06-22T00:25:10;100834.25;;;31.91;41.27
31121;BME280;17770;45.966;13.632;2023-06-22T00:27:36;100842.25;;;31.91;40.73
31121;BME280;17770;45.966;13.632;2023-06-22T00:30:02;100837.09;;;31.90;40.98
31121;BME280;17770;45.966;13.632;2023-06-22T00:32:28;100826.59;;;31.88;41.47
31121;BME280;17770;45.966;13.632;2023-06-22T00:34:54;100835.56;;;31.87;41.37
31121;BME280;17770;45.966;13.632;2023-06-22T00:37:20;100833.06;;;31.86;41.56
31121;BME280;17770;45.966;13.632;2023-06-22T00:39:52;100827.03;;;31.83;41.15
31121;BME280;17770;45.966;13.632;2023-06-22T00:42:19;100826.22;;;31.83;41.34
31121;BME280;17770;45.966;13.632;2023-06-22T00:44:46;100826.41;;;31.81;40.96
31121;BME280;17770;45.966;13.632;2023-06-22T00:47:15;100830.22;;;31.79;40.88
31121;BME280;17770;45.966;13.632;2023-06-22T00:49:43;100824.88;;;31.79;40.90
31121;BME280;17770;45.966;13.632;2023-06-22T00:52:10;100828.41;;;31.79;41.00
31121;BME280;17770;45.966;13.632;2023-06-22T00:54:42;100827.72;;;31.77;40.83
31121;BME280;17770;45.966;13.632;2023-06-22T00:57:11;100828.56;;;31.78;41.04
31121;BME280;17770;45.966;13.632;2023-06-22T00:59:37;100824.22;;;31.77;41.22
31121;BME280;17770;45.966;13.632;2023-06-22T01:02:04;100819.06;;;31.75;41.27
31121;BME280;17770;45.966;13.632;2023-06-22T01:04:34;100825.22;;;31.76;41.35
31121;BME280;17770;45.966;13.632;2023-06-22T01:07:02;100824.56;;;31.74;41.01
31121;BME280;17770;45.966;13.632;2023-06-22T01:09:35;100824.72;;;31.72;41.06
31121;BME280;17770;45.966;13.632;2023-06-22T01:12:07;100825.75;;;31.71;41.33
31121;BME280;17770;45.966;13.632;2023-06-22T01:14:41;100819.75;;;31.69;41.24
31121;BME280;17770;45.966;13.632;2023-06-22T01:17:09;100815.56;;;31.67;41.35
31121;BME280;17770;45.966;13.632;2023-06-22T01:19:50;100815.56;;;31.67;41.29
31121;BME280;17770;45.966;13.632;2023-06-22T01:22:25;100818.41;;;31.65;41.18
31121;BME280;17770;45.966;13.632;2023-06-22T01:24:57;100815.91;;;31.64;41.61
31121;BME280;17770;45.966;13.632;2023-06-22T01:27:36;100802.41;;;31.65;41.76
31121;BME280;17770;45.966;13.632;2023-06-22T01:30:08;100809.75;;;31.63;41.72
31121;BME280;17770;45.966;13.632;2023-06-22T01:32:36;100809.09;;;31.61;41.30
31121;BME280;17770;45.966;13.632;2023-06-22T01:35:03;100812.75;;;31.60;41.15
31121;BME280;17770;45.966;13.632;2023-06-22T01:37:30;100810.06;;;31.60;41.62
31121;BME280;17770;45.966;13.632;2023-06-22T01:39:58;100808.41;;;31.59;41.88
31121;BME280;17770;45.966;13.632;2023-06-22T01:42:24;100808.75;;;31.56;41.76
31121;BME280;17770;45.966;13.632;2023-06-22T01:44:51;100802.59;;;31.56;42.23
31121;BME280;17770;45.966;13.632;2023-06-22T01:47:17;100800.09;;;31.54;41.64
31121;BME280;17770;45.966;13.632;2023-06-22T01:49:43;100797.41;;;31.54;42.24
31121;BME280;17770;45.966;13.632;2023-06-22T01:52:09;100798.56;;;31.52;42.27
31121;BME280;17770;45.966;13.632;2023-06-22T01:54:35;100790.56;;;31.52;41.98
31121;BME280;17770;45.966;13.632;2023-06-22T01:57:01;100791.59;;;31.51;41.89
31121;BME280;17770;45.966;13.632;2023-06-22T01:59:34;100790.91;;;31.49;42.45
31121;BME280;17770;45.966;13.632;2023-06-22T02:02:04;100783.75;;;31.49;42.07
31121;BME280;17770;45.966;13.632;2023-06-22T02:04:37;100776.94;;;31.47;42.36
31121;BME280;17770;45.966;13.632;2023-06-22T02:07:08;100779.59;;;31.47;41.96
31121;BME280;17770;45.966;13.632;2023-06-22T02:09:35;100775.25;;;31.46;42.13
31121;BME280;17770;45.966;13.632;2023-06-22T02:12:02;100770.94;;;31.45;42.50
31121;BME280;17770;45.966;13.632;2023-06-22T02:14:28;100772.94;;;31.43;41.82
31121;BME280;17770;45.966;13.632;2023-06-22T02:16:55;100768.44;;;31.43;42.08
31121;BME280;17770;45.966;13.632;2023-06-22T02:19:24;100774.75;;;31.42;41.54
31121;BME280;17770;45.966;13.632;2023-06-22T02:21:52;100776.75;;;31.40;42.20
31121;BME280;17770;45.966;13.632;2023-06-22T02:24:20;100772.44;;;31.39;41.58
31121;BME280;17770;45.966;13.632;2023-06-22T02:26:49;100776.28;;;31.37;42.13
31121;BME280;17770;45.966;13.632;2023-06-22T02:29:14;100773.63;;;31.37;42.05
31121;BME280;17770;45.966;13.632;2023-06-22T02:31:42;100779.25;;;31.34;41.60
31121;BME280;17770;45.966;13.632;2023-06-22T02:34:08;100768.91;;;31.31;41.57
31121;BME280;17770;45.966;13.632;2023-06-22T02:36:33;100775.06;;;31.31;41.66
31121;BME280;17770;45.966;13.632;2023-06-22T02:39:00;100771.75;;;31.29;42.02
31121;BME280;17770;45.966;13.632;2023-06-22T02:41:27;100777.06;;;31.29;41.74
31121;BME280;17770;45.966;13.632;2023-06-22T02:43:55;100783.75;;;31.25;41.98
31121;BME280;17770;45.966;13.632;2023-06-22T02:46:21;100775.59;;;31.27;42.51
31121;BME280;17770;45.966;13.632;2023-06-22T02:48:48;100784.91;;;31.23;41.91
31121;BME280;17770;45.966;13.632;2023-06-22T02:51:14;100780.41;;;31.23;42.25
31121;BME280;17770;45.966;13.632;2023-06-22T02:53:41;100794.72;;;31.22;42.54
31121;BME280;17770;45.966;13.632;2023-06-22T02:56:11;100784.41;;;31.19;41.86
31121;BME280;17770;45.966;13.632;2023-06-22T02:58:38;100790.59;;;31.20;41.98
31121;BME280;17770;45.966;13.632;2023-06-22T03:01:07;100786.41;;;31.17;42.24
31121;BME280;17770;45.966;13.632;2023-06-22T03:03:35;100788.44;;;31.15;41.97
31121;BME280;17770;45.966;13.632;2023-06-22T03:06:01;100784.91;;;31.15;42.42
31121;BME280;17770;45.966;13.632;2023-06-22T03:08:28;100785.25;;;31.12;42.54
31121;BME280;17770;45.966;13.632;2023-06-22T03:10:54;100779.94;;;31.12;42.60
31121;BME280;17770;45.966;13.632;2023-06-22T03:13:20;100780.09;;;31.10;42.39
31121;BME280;17770;45.966;13.632;2023-06-22T03:15:46;100786.25;;;31.11;42.30
31121;BME280;17770;45.966;13.632;2023-06-22T03:18:12;100778.56;;;31.08;41.89
31121;BME280;17770;45.966;13.632;2023-06-22T03:20:38;100783.09;;;31.07;42.02
31121;BME280;17770;45.966;13.632;2023-06-22T03:23:04;100782.44;;;31.05;42.17
31121;BME280;17770;45.966;13.632;2023-06-22T03:25:32;100786.06;;;31.04;42.46
31121;BME280;17770;45.966;13.632;2023-06-22T03:28:00;100782.59;;;31.04;42.10
31121;BME280;17770;45.966;13.632;2023-06-22T03:30:26;100790.75;;;31.02;42.03
31121;BME280;17770;45.966;13.632;2023-06-22T03:32:52;100786.25;;;31.03;42.33
31121;BME280;17770;45.966;13.632;2023-06-22T03:35:18;100780.41;;;30.99;42.77
31121;BME280;17770;45.966;13.632;2023-06-22T03:37:43;100792.06;;;30.98;42.72
31121;BME280;17770;45.966;13.632;2023-06-22T03:40:09;100788.75;;;30.96;42.09
31121;BME280;17770;45.966;13.632;2023-06-22T03:42:35;100788.75;;;30.96;42.57
31121;BME280;17770;45.966;13.632;2023-06-22T03:45:02;100795.06;;;30.95;42.30
31121;BME280;17770;45.966;13.632;2023-06-22T03:47:29;100792.59;;;30.94;42.65
31121;BME280;17770;45.966;13.632;2023-06-22T03:49:57;100798.88;;;30.93;42.36
31121;BME280;17770;45.966;13.632;2023-06-22T03:52:23;100797.25;;;30.92;42.21
31121;BME280;17770;45.966;13.632;2023-06-22T03:54:48;100792.06;;;30.90;42.20
31121;BME280;17770;45.966;13.632;2023-06-22T03:57:14;100792.41;;;30.87;42.70
31121;BME280;17770;45.966;13.632;2023-06-22T03:59:40;100787.25;;;30.86;42.25
31121;BME280;17770;45.966;13.632;2023-06-22T04:02:06;100792.41;;;30.87;42.28
31121;BME280;17770;45.966;13.632;2023-06-22T04:04:32;100793.56;;;30.85;42.85
31121;BME280;17770;45.966;13.632;2023-06-22T04:06:59;100796.22;;;30.85;42.65
31121;BME280;17770;45.966;13.632;2023-06-22T04:09:25;100798.06;;;30.84;42.26
31121;BME280;17770;45.966;13.632;2023-06-22T04:11:51;100803.69;;;30.81;42.23
31121;BME280;17770;45.966;13.632;2023-06-22T04:14:17;100798.38;;;30.81;42.87
31121;BME280;17770;45.966;13.632;2023-06-22T04:16:43;100810.22;;;30.79;42.25
31121;BME280;17770;45.966;13.632;2023-06-22T04:19:09;100803.31;;;30.76;42.45
31121;BME280;17770;45.966;13.632;2023-06-22T04:21:44;100795.50;;;30.75;42.83
31121;BME280;17770;45.966;13.632;2023-06-22T04:24:13;100797.50;;;30.73;42.24
31121;BME280;17770;45.966;13.632;2023-06-22T04:26:39;100798.66;;;30.70;42.40
31121;BME280;17770;45.966;13.632;2023-06-22T04:29:07;100789.66;;;30.71;42.64
31121;BME280;17770;45.966;13.632;2023-06-22T04:31:34;100782.00;;;30.68;42.58
31121;BME280;17770;45.966;13.632;2023-06-22T04:34:04;100781.31;;;30.66;42.87
31121;BME280;17770;45.966;13.632;2023-06-22T04:36:33;100785.69;;;30.67;42.41
31121;BME280;17770;45.966;13.632;2023-06-22T04:39:04;100782.16;;;30.67;42.76
31121;BME280;17770;45.966;13.632;2023-06-22T04:41:30;100786.00;;;30.64;42.59
31121;BME280;17770;45.966;13.632;2023-06-22T04:44:02;100784.50;;;30.61;42.51
31121;BME280;17770;45.966;13.632;2023-06-22T04:46:30;100791.63;;;30.61;42.82
31121;BME280;17770;45.966;13.632;2023-06-22T04:48:56;100785.50;;;30.60;42.82
31121;BME280;17770;45.966;13.632;2023-06-22T04:51:22;100779.31;;;30.60;42.32
31121;BME280;17770;45.966;13.632;2023-06-22T04:53:48;100783.81;;;30.59;42.25
31121;BME280;17770;45.966;13.632;2023-06-22T04:56:14;100782.50;;;30.55;42.69
31121;BME280;17770;45.966;13.632;2023-06-22T04:58:41;100792.97;;;30.57;42.95
31121;BME280;17770;45.966;13.632;2023-06-22T05:01:07;100785.16;;;30.55;42.34
31121;BME280;17770;45.966;13.632;2023-06-22T05:03:34;100782.50;;;30.55;42.62
31121;BME280;17770;45.966;13.632;2023-06-22T05:06:02;100777.31;;;30.54;42.44
31121;BME280;17770;45.966;13.632;2023-06-22T05:08:28;100780.97;;;30.53;43.02
31121;BME280;17770;45.966;13.632;2023-06-22T05:10:54;100789.28;;;30.50;43.00
31121;BME280;17770;45.966;13.632;2023-06-22T05:13:20;100791.09;;;30.49;42.57
31121;BME280;17770;45.966;13.632;2023-06-22T05:15:47;100787.63;;;30.49;43.20
31121;BME280;17770;45.966;13.632;2023-06-22T05:18:13;100792.97;;;30.49;43.21
31121;BME280;17770;45.966;13.632;2023-06-22T05:20:39;100801.13;;;30.47;42.58
31121;BME280;17770;45.966;13.632;2023-06-22T05:23:05;100794.78;;;30.48;42.66
31121;BME280;17770;45.966;13.632;2023-06-22T05:25:31;100793.13;;;30.47;42.98
31121;BME280;17770;45.966;13.632;2023-06-22T05:27:58;100783.44;;;30.46;43.19
31121;BME280;17770;45.966;13.632;2023-06-22T05:30:24;100791.44;;;30.46;42.80
31121;BME280;17770;45.966;13.632;2023-06-22T05:32:50;100791.44;;;30.46;43.48
31121;BME280;17770;45.966;13.632;2023-06-22T05:35:16;100786.97;;;30.47;43.32
31121;BME280;17770;45.966;13.632;2023-06-22T05:37:42;100793.28;;;30.46;42.99
31121;BME280;17770;45.966;13.632;2023-06-22T05:40:08;100795.13;;;30.45;43.53
31121;BME280;17770;45.966;13.632;2023-06-22T05:42:35;100794.25;;;30.45;43.15
31121;BME280;17770;45.966;13.632;2023-06-22T05:45:01;100786.28;;;30.45;43.54
31121;BME280;17770;45.966;13.632;2023-06-22T05:47:26;100787.28;;;30.44;43.61
31121;BME280;17770;45.966;13.632;2023-06-22T05:49:52;100784.78;;;30.42;43.51
31121;BME280;17770;45.966;13.632;2023-06-22T05:52:18;100784.78;;;30.42;43.01
31121;BME280;17770;45.966;13.632;2023-06-22T05:54:44;100776.28;;;30.39;43.73
31121;BME280;17770;45.966;13.632;2023-06-22T05:57:10;100773.63;;;30.39;43.39
31121;BME280;17770;45.966;13.632;2023-06-22T05:59:36;100776.97;;;30.41;43.34
31121;BME280;17770;45.966;13.632;2023-06-22T06:02:02;100781.44;;;30.40;43.94
31121;BME280;17770;45.966;13.632;2023-06-22T06:04:28;100771.63;;;30.41;43.54
31121;BME280;17770;45.966;13.632;2023-06-22T06:06:53;100776.13;;;30.40;43.48
31121;BME280;17770;45.966;13.632;2023-06-22T06:09:19;100755.66;;;30.41;43.72
31121;BME280;17770;45.966;13.632;2023-06-22T06:11:45;100760.16;;;30.40;43.20
31121;BME280;17770;45.966;13.632;2023-06-22T06:14:11;100758.50;;;30.39;43.83
31121;BME280;17770;45.966;13.632;2023-06-22T06:16:37;100765.63;;;30.39;43.46
31121;BME280;17770;45.966;13.632;2023-06-22T06:19:03;100760.16;;;30.40;43.64
31121;BME280;17770;45.966;13.632;2023-06-22T06:21:29;100762.63;;;30.42;43.70
31121;BME280;17770;45.966;13.632;2023-06-22T06:23:55;100774.94;;;30.43;43.41
31121;BME280;17770;45.966;13.632;2023-06-22T06:26:20;100764.28;;;30.43;43.61
31121;BME280;17770;45.966;13.632;2023-06-22T06:28:53;100764.13;;;30.44;43.49
31121;BME280;17770;45.966;13.632;2023-06-22T06:31:20;100763.31;;;30.44;43.74
31121;BME280;17770;45.966;13.632;2023-06-22T06:33:46;100767.63;;;30.45;44.04
31121;BME280;17770;45.966;13.632;2023-06-22T06:36:12;100764.81;;;30.46;44.05
31121;BME280;17770;45.966;13.632;2023-06-22T06:38:38;100772.00;;;30.46;43.59
31121;BME280;17770;45.966;13.632;2023-06-22T06:41:04;100773.00;;;30.61;43.84
31121;BME280;17770;45.966;13.632;2023-06-22T06:43:29;100773.50;;;30.64;43.56
31121;BME280;17770;45.966;13.632;2023-06-22T06:45:55;100773.34;;;30.66;43.29
31121;BME280;17770;45.966;13.632;2023-06-22T06:48:21;100771.50;;;30.67;43.71
31121;BME280;17770;45.966;13.632;2023-06-22T06:50:47;100778.38;;;30.69;43.79
31121;BME280;17770;45.966;13.632;2023-06-22T06:53:13;100775.47;;;30.54;43.64
31121;BME280;17770;45.966;13.632;2023-06-22T06:55:39;100775.97;;;30.50;44.16
31121;BME280;17770;45.966;13.632;2023-06-22T06:58:05;100784.97;;;30.49;44.28
31121;BME280;17770;45.966;13.632;2023-06-22T07:00:33;100776.97;;;30.49;44.45
31121;BME280;17770;45.966;13.632;2023-06-22T07:03:01;100788.63;;;30.48;44.40
31121;BME280;17770;45.966;13.632;2023-06-22T07:05:27;100786.28;;;30.45;44.12
31121;BME280;17770;45.966;13.632;2023-06-22T07:07:53;100785.31;;;30.46;44.54
31121;BME280;17770;45.966;13.632;2023-06-22T07:10:19;100789.63;;;30.47;44.77
31121;BME280;17770;45.966;13.632;2023-06-22T07:12:45;100781.78;;;30.45;44.40
31121;BME280;17770;45.966;13.632;2023-06-22T07:15:11;100794.94;;;30.47;44.65
31121;BME280;17770;45.966;13.632;2023-06-22T07:17:38;100790.47;;;30.47;45.17
31121;BME280;17770;45.966;13.632;2023-06-22T07:20:07;100791.28;;;30.48;44.96
31121;BME280;17770;45.966;13.632;2023-06-22T07:22:37;100790.28;;;30.49;44.79
31121;BME280;17770;45.966;13.632;2023-06-22T07:25:03;100784.13;;;30.48;44.94
31121;BME280;17770;45.966;13.632;2023-06-22T07:28:19;100786.63;;;30.50;45.29
31121;BME280;17770;45.966;13.632;2023-06-22T07:30:21;100780.16;;;30.52;45.21
31121;BME280;17770;45.966;13.632;2023-06-22T07:32:47;100780.97;;;30.53;45.10
31121;BME280;17770;45.966;13.632;2023-06-22T07:35:12;100787.13;;;30.53;45.15
31121;BME280;17770;45.966;13.632;2023-06-22T07:37:38;100775.34;;;30.56;44.75
31121;BME280;17770;45.966;13.632;2023-06-22T07:40:04;100779.81;;;30.55;44.74
31121;BME280;17770;45.966;13.632;2023-06-22T07:42:32;100776.16;;;30.56;44.94
31121;BME280;17770;45.966;13.632;2023-06-22T07:45:02;100774.16;;;30.58;44.75
31121;BME280;17770;45.966;13.632;2023-06-22T07:47:28;100776.50;;;30.61;44.55
31121;BME280;17770;45.966;13.632;2023-06-22T07:49:54;100780.00;;;30.62;45.20
31121;BME280;17770;45.966;13.632;2023-06-22T07:52:21;100780.84;;;30.63;45.57
31121;BME280;17770;45.966;13.632;2023-06-22T07:54:47;100777.19;;;30.63;45.42
31121;BME280;17770;45.966;13.632;2023-06-22T07:57:13;100775.19;;;30.66;44.78
31121;BME280;17770;45.966;13.632;2023-06-22T07:59:39;100776.00;;;30.66;45.51
31121;BME280;17770;45.966;13.632;2023-06-22T08:02:05;100781.31;;;30.66;45.64
31121;BME280;17770;45.966;13.632;2023-06-22T08:04:31;100776.69;;;30.68;45.66
31121;BME280;17770;45.966;13.632;2023-06-22T08:06:59;100776.50;;;30.70;44.91
31121;BME280;17770;45.966;13.632;2023-06-22T08:09:25;100779.19;;;30.70;45.49
31121;BME280;17770;45.966;13.632;2023-06-22T08:11:51;100775.38;;;30.72;44.79
31121;BME280;17770;45.966;13.632;2023-06-22T08:14:17;100772.53;;;30.74;44.86
31121;BME280;17770;45.966;13.632;2023-06-22T08:16:42;100772.53;;;30.74;45.20
31121;BME280;17770;45.966;13.632;2023-06-22T08:19:08;100770.72;;;30.74;44.90
31121;BME280;17770;45.966;13.632;2023-06-22T08:21:34;100775.88;;;30.76;44.81
31121;BME280;17770;45.966;13.632;2023-06-22T08:24:00;100772.19;;;30.77;45.29
31121;BME280;17770;45.966;13.632;2023-06-22T08:26:26;100776.41;;;30.79;44.78
31121;BME280;17770;45.966;13.632;2023-06-22T08:28:52;100776.41;;;30.79;44.90
31121;BME280;17770;45.966;13.632;2023-06-22T08:31:18;100777.06;;;30.81;44.94
31121;BME280;17770;45.966;13.632;2023-06-22T08:33:44;100777.72;;;30.83;44.59
31121;BME280;17770;45.966;13.632;2023-06-22T08:36:11;100773.91;;;30.86;45.22
31121;BME280;17770;45.966;13.632;2023-06-22T08:38:39;100767.75;;;30.85;44.63
31121;BME280;17770;45.966;13.632;2023-06-22T08:41:04;100774.56;;;30.88;45.14
31121;BME280;17770;45.966;13.632;2023-06-22T08:43:30;100783.06;;;30.91;44.58
31121;BME280;17770;45.966;13.632;2023-06-22T08:45:56;100775.75;;;30.93;45.25
31121;BME280;17770;45.966;13.632;2023-06-22T08:48:22;100779.09;;;30.95;45.34
31121;BME280;17770;45.966;13.632;2023-06-22T08:50:48;100772.75;;;30.96;45.20
31121;BME280;17770;45.966;13.632;2023-06-22T08:53:14;100773.59;;;30.97;44.68
31121;BME280;17770;45.966;13.632;2023-06-22T08:55:39;100772.56;;;30.98;44.91
31121;BME280;17770;45.966;13.632;2023-06-22T08:58:05;100770.59;;;31.00;45.09
31121;BME280;17770;45.966;13.632;2023-06-22T09:00:32;100772.75;;;31.04;45.42
31121;BME280;17770;45.966;13.632;2023-06-22T09:03:00;100770.06;;;31.04;45.51
31121;BME280;17770;45.966;13.632;2023-06-22T09:05:26;100770.91;;;31.05;45.45
31121;BME280;17770;45.966;13.632;2023-06-22T09:07:52;100767.41;;;31.04;46.72
31121;BME280;17770;45.966;13.632;2023-06-22T09:10:20;100768.94;;;31.07;45.80
31121;BME280;17770;45.966;13.632;2023-06-22T09:12:46;100764.91;;;31.03;46.09
31121;BME280;17770;45.966;13.632;2023-06-22T09:15:12;100762.09;;;31.04;45.58
31121;BME280;17770;45.966;13.632;2023-06-22T09:17:38;100756.28;;;31.09;45.42
31121;BME280;17770;45.966;13.632;2023-06-22T09:20:04;100761.09;;;31.13;45.62
31121;BME280;17770;45.966;13.632;2023-06-22T09:22:31;100763.09;;;31.19;45.26
31121;BME280;17770;45.966;13.632;2023-06-22T09:24:58;100766.09;;;31.08;47.55
31121;BME280;17770;45.966;13.632;2023-06-22T09:27:25;100763.94;;;31.12;46.46
31121;BME280;17770;45.966;13.632;2023-06-22T09:29:51;100766.75;;;31.18;46.82
31121;BME280;17770;45.966;13.632;2023-06-22T09:32:17;100769.94;;;31.22;46.43
31121;BME280;17770;45.966;13.632;2023-06-22T09:34:43;100760.56;;;31.26;45.54
31121;BME280;17770;45.966;13.632;2023-06-22T09:37:08;100760.09;;;31.30;46.17
31121;BME280;17770;45.966;13.632;2023-06-22T09:39:34;100764.09;;;31.34;46.22
31121;BME280;17770;45.966;13.632;2023-06-22T09:42:01;100755.06;;;31.27;47.50
31121;BME280;17770;45.966;13.632;2023-06-22T09:44:27;100758.06;;;31.24;48.12
31121;BME280;17770;45.966;13.632;2023-06-22T09:46:53;100759.09;;;31.23;48.17
31121;BME280;17770;45.966;13.632;2023-06-22T09:49:19;100760.25;;;31.21;47.80
31121;BME280;17770;45.966;13.632;2023-06-22T09:51:45;100754.75;;;31.30;47.11
31121;BME280;17770;45.966;13.632;2023-06-22T09:54:11;100747.75;;;31.37;47.09
31121;BME280;17770;45.966;13.632;2023-06-22T09:56:36;100748.41;;;31.47;46.81
31121;BME280;17770;45.966;13.632;2023-06-22T09:59:03;100739.44;;;31.48;47.86
31121;BME280;17770;45.966;13.632;2023-06-22T10:01:29;100738.06;;;31.52;47.55
31121;BME280;17770;45.966;13.632;2023-06-22T10:03:55;100730.38;;;31.57;46.95
31121;BME280;17770;45.966;13.632;2023-06-22T10:06:22;100734.56;;;31.52;48.24
31121;BME280;17770;45.966;13.632;2023-06-22T10:08:48;100735.25;;;31.46;48.80
31121;BME280;17770;45.966;13.632;2023-06-22T10:11:14;100734.41;;;31.45;49.27
31121;BME280;17770;45.966;13.632;2023-06-22T10:13:40;100734.41;;;31.53;48.81
31121;BME280;17770;45.966;13.632;2023-06-22T10:16:06;100737.06;;;31.61;48.37
31121;BME280;17770;45.966;13.632;2023-06-22T10:18:32;100734.03;;;31.64;48.67
31121;BME280;17770;45.966;13.632;2023-06-22T10:20:58;100729.34;;;31.74;47.88
31121;BME280;17770;45.966;13.632;2023-06-22T10:23:24;100726.19;;;31.71;48.00
31121;BME280;17770;45.966;13.632;2023-06-22T10:25:50;100737.34;;;31.74;48.42
31121;BME280;17770;45.966;13.632;2023-06-22T10:28:16;100728.81;;;31.79;47.79
31121;BME280;17770;45.966;13.632;2023-06-22T10:30:42;100748.03;;;31.66;48.37
31121;BME280;17770;45.966;13.632;2023-06-22T10:33:08;100738.19;;;31.75;47.96
31121;BME280;17770;45.966;13.632;2023-06-22T10:35:35;100736.28;;;31.83;47.23
31121;BME280;17770;45.966;13.632;2023-06-22T10:38:00;100727.81;;;31.88;47.29
31121;BME280;17770;45.966;13.632;2023-06-22T10:40:26;100731.13;;;31.90;47.26
31121;BME280;17770;45.966;13.632;2023-06-22T10:42:52;100733.97;;;31.89;47.19
31121;BME280;17770;45.966;13.632;2023-06-22T10:45:18;100724.28;;;31.96;47.94
31121;BME280;17770;45.966;13.632;2023-06-22T10:47:44;100718.91;;;32.04;47.81
31121;BME280;17770;45.966;13.632;2023-06-22T10:50:10;100720.22;;;32.08;47.53
31121;BME280;17770;45.966;13.632;2023-06-22T10:52:36;100724.84;;;32.14;47.34
31121;BME280;17770;45.966;13.632;2023-06-22T10:55:02;100716.09;;;31.97;48.06
31121;BME280;17770;45.966;13.632;2023-06-22T10:57:29;100714.94;;;32.00;48.02
31121;BME280;17770;45.966;13.632;2023-06-22T10:59:55;100717.72;;;32.06;48.03
31121;BME280;17770;45.966;13.632;2023-06-22T11:02:21;100710.22;;;32.10;48.01
31121;BME280;17770;45.966;13.632;2023-06-22T11:04:47;100711.41;;;31.99;48.69
31121;BME280;17770;45.966;13.632;2023-06-22T11:07:13;100705.84;;;32.09;47.60
31121;BME280;17770;45.966;13.632;2023-06-22T11:09:39;100701.88;;;32.05;48.54
31121;BME280;17770;45.966;13.632;2023-06-22T11:12:05;100704.19;;;32.08;48.60
31121;BME280;17770;45.966;13.632;2023-06-22T11:14:31;100703.97;;;32.17;48.68
31121;BME280;17770;45.966;13.632;2023-06-22T11:16:59;100707.63;;;32.24;48.28
31121;BME280;17770;45.966;13.632;2023-06-22T11:19:25;100704.41;;;32.29;47.51
31121;BME280;17770;45.966;13.632;2023-06-22T11:21:51;100701.19;;;32.33;47.57
31121;BME280;17770;45.966;13.632;2023-06-22T11:24:17;100702.72;;;32.36;47.71
31121;BME280;17770;45.966;13.632;2023-06-22T11:26:43;100698.69;;;32.40;48.14
31121;BME280;17770;45.966;13.632;2023-06-22T11:29:09;100701.91;;;32.27;47.89
31121;BME280;17770;45.966;13.632;2023-06-22T11:31:35;100692.19;;;32.34;48.56
31121;BME280;17770;45.966;13.632;2023-06-22T11:34:01;100685.28;;;32.48;48.41
31121;BME280;17770;45.966;13.632;2023-06-22T11:36:28;100688.38;;;32.59;48.61
31121;BME280;17770;45.966;13.632;2023-06-22T11:38:54;100685.97;;;32.64;48.27
31121;BME280;17770;45.966;13.632;2023-06-22T11:41:20;100686.34;;;32.61;48.59
31121;BME280;17770;45.966;13.632;2023-06-22T11:43:46;100684.56;;;32.54;48.09
31121;BME280;17770;45.966;13.632;2023-06-22T11:46:12;100686.50;;;32.37;48.24
31121;BME280;17770;45.966;13.632;2023-06-22T11:48:38;100687.66;;;32.43;48.33
31121;BME280;17770;45.966;13.632;2023-06-22T11:51:04;100682.75;;;32.54;48.34
31121;BME280;17770;45.966;13.632;2023-06-22T11:53:31;100677.97;;;32.64;48.69
31121;BME280;17770;45.966;13.632;2023-06-22T11:55:57;100679.38;;;32.75;49.11
31121;BME280;17770;45.966;13.632;2023-06-22T11:58:23;100678.16;;;32.63;48.06
31121;BME280;17770;45.966;13.632;2023-06-22T12:00:49;100678.50;;;32.60;48.67
31121;BME280;17770;45.966;13.632;2023-06-22T12:03:16;100676.41;;;32.70;48.94
31121;BME280;17770;45.966;13.632;2023-06-22T12:05:42;100671.66;;;32.80;48.41
31121;BME280;17770;45.966;13.632;2023-06-22T12:08:08;100667.06;;;32.88;49.40
31121;BME280;17770;45.966;13.632;2023-06-22T12:10:34;100671.91;;;32.93;49.70
31121;BME280;17770;45.966;13.632;2023-06-22T12:13:00;100661.63;;;32.82;48.81
31121;BME280;17770;45.966;13.632;2023-06-22T12:15:26;100665.47;;;32.79;49.06
31121;BME280;17770;45.966;13.632;2023-06-22T12:17:52;100667.78;;;32.90;49.19
31121;BME280;17770;45.966;13.632;2023-06-22T12:20:18;100663.34;;;32.97;49.37
31121;BME280;17770;45.966;13.632;2023-06-22T12:22:44;100663.00;;;33.00;49.72
31121;BME280;17770;45.966;13.632;2023-06-22T12:25:10;100662.16;;;33.00;49.97
31121;BME280;17770;45.966;13.632;2023-06-22T12:27:36;100658.84;;;33.13;50.05
31121;BME280;17770;45.966;13.632;2023-06-22T12:30:02;100657.38;;;33.10;48.97
31121;BME280;17770;45.966;13.632;2023-06-22T12:32:28;100662.91;;;32.94;48.02
31121;BME280;17770;45.966;13.632;2023-06-22T12:34:54;100661.06;;;32.86;47.94
31121;BME280;17770;45.966;13.632;2023-06-22T12:37:20;100657.75;;;32.84;48.13